Live Oak, California
Current Conditions -  °F | °C
As of 2:53 PM on Tuesday 21 Oct 2014 (Local Time) from KMYV Reporting Station
Scattered Clouds Scattered Clouds  
Wind Chill: 22°   Ceiling: Unl
Heat Index: 22°   Visibility: 9mi
Dew Point:   Wind: 13mph
Humidity: 34%   Direction: 320°NW
Pressure: 30.02"   Gusts: NA
Location:  39.28°N, 121.66°W
Report Text: KMYV 212153Z AUTO 32011KT 9SM SCT021 22/05 A3002 RMK AO2 SLP167 T02170050
Loading
Personal Weather Stations






























Interactive Weather Map
Tropical Storm Tracking
New forecast layout! Learn more

10-Day Weather Forecast

Advertisements
Track Severe Weather on mobile